Time;durP1;ratioP1;P1;durP2;ratioP2;P2;SDS_P1;SDS_P2;PMS_P1;PMS_P2;Temp;Humidity;BMP_temperature;BMP_pressure;BME280_temperature;BME280_humidity;BME280_pressure;Samples;Min_cycle;Max_cycle;Signal;HPM_P1;HPM_P2
2022/03/30 00:01:24;;;;;;;32.53;14.70;;;10.10;99.90;;;;;;5046953;28;20105;-68
2022/03/30 00:03:50;;;;;;;37.38;15.32;;;10.10;99.90;;;;;;5045034;28;20021;-69
2022/03/30 00:06:15;;;;;;;25.20;14.02;;;10.00;99.90;;;;;;5041670;28;20020;-67
2022/03/30 00:08:42;;;;;;;41.15;15.43;;;9.90;99.90;;;;;;5043354;28;20064;-69
2022/03/30 00:11:09;;;;;;;26.38;15.38;;;10.00;99.90;;;;;;5045071;28;20035;-68
2022/03/30 00:13:38;;;;;;;33.38;16.55;;;10.00;99.90;;;;;;5038904;28;20025;-68
2022/03/30 00:16:06;;;;;;;25.58;14.40;;;10.10;99.90;;;;;;5040027;28;20091;-68
2022/03/30 00:18:32;;;;;;;27.50;15.98;;;10.10;99.90;;;;;;5042479;28;20373;-69
2022/03/30 00:20:57;;;;;;;24.55;14.68;;;10.00;99.90;;;;;;5042081;28;20120;-69
2022/03/30 00:23:23;;;;;;;26.75;16.25;;;10.00;99.90;;;;;;5045493;28;20116;-69
2022/03/30 00:25:49;;;;;;;30.58;16.30;;;10.00;99.90;;;;;;5045103;28;20021;-69
2022/03/30 00:28:15;;;;;;;27.88;16.15;;;10.00;99.90;;;;;;5044647;28;20479;-68
2022/03/30 00:30:41;;;;;;;31.92;16.52;;;9.90;99.90;;;;;;5043496;28;20033;-69
2022/03/30 00:33:07;;;;;;;32.90;16.98;;;9.80;99.90;;;;;;5040924;28;20108;-69
2022/03/30 00:35:33;;;;;;;24.67;16.17;;;9.90;99.90;;;;;;5047539;28;20178;-69
2022/03/30 00:37:59;;;;;;;33.15;15.98;;;9.80;99.90;;;;;;5046859;28;20017;-70
2022/03/30 00:40:25;;;;;;;22.60;17.00;;;9.80;99.90;;;;;;5047521;28;20043;-69
2022/03/30 00:42:51;;;;;;;24.50;14.07;;;9.90;99.90;;;;;;5044657;28;20665;-69
2022/03/30 00:45:21;;;;;;;25.75;16.48;;;9.90;99.90;;;;;;5044555;28;20025;-68
2022/03/30 00:47:48;;;;;;;38.40;16.83;;;9.90;99.90;;;;;;5044268;28;20549;-68
2022/03/30 00:50:18;;;;;;;23.80;16.83;;;9.90;99.90;;;;;;5037578;28;20100;-69
2022/03/30 00:52:45;;;;;;;27.58;18.17;;;9.90;99.90;;;;;;5041473;28;20096;-68
2022/03/30 00:55:13;;;;;;;25.65;17.67;;;9.90;99.90;;;;;;5040854;28;20463;-68
2022/03/30 00:57:41;;;;;;;31.02;16.40;;;9.80;99.90;;;;;;5043419;28;20040;-68
2022/03/30 01:00:09;;;;;;;29.15;17.35;;;9.80;99.90;;;;;;5041396;28;20187;-68
2022/03/30 01:02:39;;;;;;;36.03;16.80;;;9.80;99.90;;;;;;5038843;28;20364;-69
2022/03/30 01:05:06;;;;;;;26.80;16.67;;;9.80;99.90;;;;;;5039655;28;20024;-69
2022/03/30 01:07:32;;;;;;;26.23;16.35;;;9.80;99.90;;;;;;5040994;28;20099;-69
2022/03/30 01:09:57;;;;;;;35.75;17.05;;;9.80;99.90;;;;;;5047626;28;20028;-68
2022/03/30 01:12:25;;;;;;;30.00;16.60;;;9.90;99.90;;;;;;5041058;28;20031;-69
2022/03/30 01:14:52;;;;;;;29.30;17.52;;;10.10;99.90;;;;;;5042790;28;20500;-69
2022/03/30 01:17:18;;;;;;;32.25;17.25;;;10.00;99.90;;;;;;5045261;28;20020;-68
2022/03/30 01:19:44;;;;;;;26.15;16.15;;;9.90;99.90;;;;;;5041625;28;20036;-68
2022/03/30 01:22:10;;;;;;;35.50;19.83;;;9.80;99.90;;;;;;5040837;28;20021;-68
2022/03/30 01:24:36;;;;;;;24.38;16.80;;;9.80;99.90;;;;;;5041259;28;20028;-68
2022/03/30 01:27:05;;;;;;;23.52;16.73;;;9.80;99.90;;;;;;5044994;28;20111;-68
2022/03/30 01:32:27;;;;;;;28.50;16.52;;;9.80;99.90;;;;;;5048798;28;20331;-69
2022/03/30 01:34:53;;;;;;;22.92;16.23;;;9.80;99.90;;;;;;5045857;28;20102;-69
2022/03/30 01:37:20;;;;;;;30.42;17.70;;;10.00;99.90;;;;;;5039991;28;20109;-68
2022/03/30 01:39:46;;;;;;;19.67;14.10;;;10.10;99.90;;;;;;5041163;28;20048;-68
2022/03/30 01:42:12;;;;;;;31.33;16.88;;;10.10;99.90;;;;;;5038495;28;20200;-68
2022/03/30 01:44:39;;;;;;;25.83;15.27;;;10.00;99.90;;;;;;5039649;28;20025;-68
2022/03/30 01:47:05;;;;;;;24.88;13.52;;;10.00;99.90;;;;;;5040148;28;20021;-68
2022/03/30 01:49:31;;;;;;;35.78;17.75;;;10.00;99.90;;;;;;5043828;28;20048;-69
2022/03/30 01:51:59;;;;;;;25.83;14.50;;;10.00;99.90;;;;;;5038963;28;20067;-68
2022/03/30 01:54:26;;;;;;;27.75;16.58;;;9.90;99.90;;;;;;5040577;28;20037;-69
2022/03/30 01:56:54;;;;;;;43.17;17.45;;;9.80;99.90;;;;;;5049196;28;20032;-68
2022/03/30 01:59:21;;;;;;;22.83;15.10;;;9.80;99.90;;;;;;5042809;28;20025;-68
2022/03/30 02:01:47;;;;;;;31.02;15.98;;;9.90;99.90;;;;;;5043208;28;20053;-68
2022/03/30 02:04:14;;;;;;;25.63;13.65;;;10.00;99.90;;;;;;5034828;28;20674;-68
2022/03/30 02:06:40;;;;;;;38.05;14.93;;;10.00;99.90;;;;;;5028631;28;20044;-68
2022/03/30 02:09:07;;;;;;;16.88;13.50;;;9.90;99.90;;;;;;5030314;28;20025;-69
2022/03/30 02:11:34;;;;;;;21.92;13.55;;;9.90;99.90;;;;;;5040333;28;20118;-69
2022/03/30 02:14:00;;;;;;;27.23;12.68;;;9.80;99.90;;;;;;5038985;28;20033;-69
2022/03/30 02:16:27;;;;;;;18.95;11.93;;;9.80;99.90;;;;;;5042910;28;20051;-69
2022/03/30 02:18:53;;;;;;;18.08;12.20;;;9.80;99.90;;;;;;5042924;28;20147;-69
2022/03/30 02:21:19;;;;;;;17.73;13.13;;;9.80;99.90;;;;;;5043071;28;20068;-69
2022/03/30 02:23:46;;;;;;;24.48;12.55;;;9.90;99.90;;;;;;5047246;28;20455;-69
2022/03/30 02:26:13;;;;;;;25.90;14.25;;;10.00;99.90;;;;;;5041428;28;20025;-69
2022/03/30 02:28:43;;;;;;;33.45;14.68;;;10.00;99.90;;;;;;5044660;28;20033;-69
2022/03/30 02:31:10;;;;;;;20.17;14.30;;;10.00;99.90;;;;;;5045676;28;20386;-69
2022/03/30 02:33:36;;;;;;;29.17;14.27;;;10.00;99.90;;;;;;5043094;28;20428;-69
2022/03/30 02:36:03;;;;;;;15.55;12.60;;;10.00;99.90;;;;;;5051530;28;20040;-69
2022/03/30 02:38:28;;;;;;;21.65;16.17;;;9.90;99.90;;;;;;5052218;28;20183;-69
2022/03/30 02:40:54;;;;;;;27.17;14.73;;;9.90;99.90;;;;;;5049823;28;20151;-69
2022/03/30 02:43:20;;;;;;;21.08;12.95;;;9.80;99.90;;;;;;5043152;28;20024;-69
2022/03/30 02:45:47;;;;;;;20.63;14.13;;;9.80;99.90;;;;;;5041360;28;20040;-69
2022/03/30 02:48:19;;;;;;;22.80;13.45;;;9.80;99.90;;;;;;5042652;28;20099;-70
2022/03/30 02:50:46;;;;;;;27.98;16.77;;;9.80;99.90;;;;;;5044467;28;20033;-70
2022/03/30 02:53:13;;;;;;;27.70;13.52;;;10.00;99.90;;;;;;5046350;28;20040;-69
2022/03/30 02:55:39;;;;;;;28.88;17.77;;;9.90;99.90;;;;;;5046667;28;20368;-70
2022/03/30 02:58:05;;;;;;;21.25;13.95;;;9.80;99.90;;;;;;5046373;28;20079;-70
2022/03/30 03:00:32;;;;;;;27.48;14.65;;;9.80;99.90;;;;;;5046313;28;20032;-69
2022/03/30 03:02:58;;;;;;;17.80;13.13;;;10.00;99.90;;;;;;5041343;28;20029;-69
2022/03/30 03:05:27;;;;;;;27.88;13.80;;;10.10;99.90;;;;;;5038707;28;20021;-70
2022/03/30 03:07:53;;;;;;;21.15;14.20;;;10.00;99.90;;;;;;5044978;28;20039;-69
2022/03/30 03:10:19;;;;;;;18.50;13.57;;;10.00;99.90;;;;;;5043677;28;20391;-69
2022/03/30 03:12:44;;;;;;;22.00;14.07;;;9.90;99.90;;;;;;5051388;28;20025;-69
2022/03/30 03:15:22;;;;;;;31.58;14.18;;;10.00;99.90;;;;;;5052035;28;20094;-69
2022/03/30 03:17:48;;;;;;;30.98;13.63;;;10.00;99.90;;;;;;5047705;28;20029;-69
2022/03/30 03:20:14;;;;;;;23.17;13.27;;;10.00;99.90;;;;;;5041986;28;20401;-67
2022/03/30 03:22:41;;;;;;;28.33;14.32;;;10.10;99.90;;;;;;5048180;28;20025;-70
2022/03/30 03:25:08;;;;;;;26.27;15.50;;;10.00;99.90;;;;;;5045375;28;20436;-70
2022/03/30 03:27:34;;;;;;;26.27;15.07;;;10.00;99.90;;;;;;5044477;28;20402;-68
2022/03/30 03:30:00;;;;;;;20.63;14.52;;;10.00;99.90;;;;;;5043913;28;20024;-68
2022/03/30 03:32:26;;;;;;;28.88;15.23;;;10.10;99.90;;;;;;5042925;28;20025;-68
2022/03/30 03:34:53;;;;;;;25.33;15.63;;;10.10;99.90;;;;;;5043653;28;20282;-69
2022/03/30 03:37:18;;;;;;;40.28;16.73;;;10.10;99.90;;;;;;5042569;28;20111;-69
2022/03/30 03:39:45;;;;;;;19.02;14.60;;;10.10;99.90;;;;;;5046035;28;20506;-69
2022/03/30 03:42:11;;;;;;;29.40;16.23;;;10.10;99.90;;;;;;5052688;28;20021;-69
2022/03/30 03:44:37;;;;;;;23.35;14.90;;;10.20;99.90;;;;;;5048541;28;20025;-69
2022/03/30 03:47:03;;;;;;;29.60;15.57;;;10.10;99.90;;;;;;5043766;28;20154;-69
2022/03/30 03:49:29;;;;;;;23.40;14.82;;;10.10;99.90;;;;;;5050807;28;20033;-69
2022/03/30 03:51:55;;;;;;;35.67;17.10;;;10.00;99.90;;;;;;5048174;28;20098;-69
2022/03/30 03:54:21;;;;;;;29.67;16.80;;;10.10;99.90;;;;;;5046647;28;20092;-69
2022/03/30 03:56:47;;;;;;;34.20;17.00;;;10.10;99.90;;;;;;5032085;28;20037;-69
2022/03/30 03:59:19;;;;;;;32.60;14.55;;;10.10;99.90;;;;;;5031904;28;20021;-72
2022/03/30 04:01:45;;;;;;;30.80;15.80;;;10.10;99.90;;;;;;5039710;28;20147;-70
2022/03/30 04:04:10;;;;;;;35.20;15.23;;;10.20;99.90;;;;;;5042209;28;20060;-68
2022/03/30 04:06:36;;;;;;;30.25;15.77;;;10.50;99.90;;;;;;5044701;28;20032;-69
2022/03/30 04:09:06;;;;;;;23.75;13.45;;;10.60;99.90;;;;;;5042253;28;20032;-70
2022/03/30 04:11:32;;;;;;;36.88;14.23;;;10.70;99.90;;;;;;5041364;28;20059;-71
2022/03/30 04:13:58;;;;;;;27.50;14.35;;;10.70;99.90;;;;;;5041316;28;20032;-68
2022/03/30 04:16:24;;;;;;;24.05;14.35;;;10.70;99.90;;;;;;5043739;28;20411;-69
2022/03/30 04:18:50;;;;;;;24.55;13.85;;;10.80;99.90;;;;;;5044132;28;20036;-70
2022/03/30 04:21:16;;;;;;;19.63;13.32;;;11.00;99.90;;;;;;5044329;28;20098;-70
2022/03/30 04:23:42;;;;;;;19.92;16.02;;;11.10;99.90;;;;;;5055958;28;20027;-70
2022/03/30 04:26:12;;;;;;;26.15;16.88;;;11.30;99.90;;;;;;5052520;28;20032;-70
2022/03/30 04:28:40;;;;;;;23.90;12.80;;;11.30;99.90;;;;;;5051705;28;20025;-70
2022/03/30 04:31:11;;;;;;;23.15;13.20;;;11.40;99.90;;;;;;5046403;28;20033;-70
2022/03/30 04:33:38;;;;;;;21.48;12.65;;;11.60;99.90;;;;;;5040930;28;20036;-69
2022/03/30 04:36:05;;;;;;;23.55;13.70;;;11.60;99.90;;;;;;5041825;28;20024;-70
2022/03/30 04:38:32;;;;;;;28.40;14.30;;;11.70;99.90;;;;;;5035370;28;20064;-69
2022/03/30 04:40:59;;;;;;;24.27;14.25;;;11.70;99.90;;;;;;5036796;28;20059;-68
2022/03/30 04:43:25;;;;;;;35.15;14.70;;;11.70;99.90;;;;;;5041389;28;20021;-69
2022/03/30 04:45:51;;;;;;;25.35;13.30;;;11.80;99.90;;;;;;5041775;28;20129;-70
2022/03/30 04:48:17;;;;;;;21.48;12.70;;;11.80;99.90;;;;;;5046031;28;20149;-69
2022/03/30 04:50:42;;;;;;;18.67;14.32;;;11.70;99.90;;;;;;5046254;28;20037;-69
2022/03/30 04:53:08;;;;;;;23.60;13.43;;;11.70;99.90;;;;;;5049076;28;20021;-71
2022/03/30 04:55:36;;;;;;;25.23;14.27;;;11.60;99.90;;;;;;5041014;28;20049;-70
2022/03/30 04:58:03;;;;;;;22.13;12.10;;;11.60;99.90;;;;;;5043174;28;20029;-68
2022/03/30 05:00:29;;;;;;;20.67;13.90;;;11.80;99.90;;;;;;5043888;28;20391;-68
2022/03/30 05:02:54;;;;;;;24.60;12.20;;;11.80;99.90;;;;;;5043108;28;20021;-70
2022/03/30 05:05:20;;;;;;;17.98;12.50;;;11.90;99.90;;;;;;5042681;28;20108;-70
2022/03/30 05:07:46;;;;;;;25.85;13.77;;;11.90;99.90;;;;;;5049827;28;20036;-69
2022/03/30 05:10:14;;;;;;;24.25;14.35;;;11.90;99.90;;;;;;5044178;28;20116;-70
2022/03/30 05:12:40;;;;;;;21.73;15.27;;;11.70;99.90;;;;;;5046047;28;20029;-69
2022/03/30 05:15:07;;;;;;;38.05;15.98;;;11.70;99.90;;;;;;5048532;28;20067;-69
2022/03/30 05:17:33;;;;;;;24.30;13.63;;;11.60;99.90;;;;;;5039817;28;20113;-69
2022/03/30 05:19:59;;;;;;;28.77;14.68;;;11.60;99.90;;;;;;5049183;28;20029;-69
2022/03/30 05:22:25;;;;;;;25.60;14.05;;;11.50;99.90;;;;;;5041363;28;20605;-69
2022/03/30 05:24:51;;;;;;;30.73;18.25;;;11.60;99.90;;;;;;5046076;28;20067;-69
2022/03/30 05:27:17;;;;;;;29.70;15.02;;;11.60;99.90;;;;;;5041503;28;20025;-68
2022/03/30 05:29:42;;;;;;;36.25;19.15;;;11.70;99.90;;;;;;5043297;28;20033;-69
2022/03/30 05:32:08;;;;;;;27.60;17.08;;;11.70;99.90;;;;;;5048489;28;20033;-70
2022/03/30 05:34:34;;;;;;;26.48;15.07;;;11.80;99.90;;;;;;5048029;28;20029;-69
2022/03/30 05:37:00;;;;;;;22.63;14.93;;;11.80;99.90;;;;;;5050022;28;20456;-70
2022/03/30 05:39:26;;;;;;;24.48;15.30;;;11.80;99.90;;;;;;5032024;28;20340;-69
2022/03/30 05:41:54;;;;;;;31.73;16.10;;;11.90;99.90;;;;;;5030501;28;20050;-69
2022/03/30 05:44:20;;;;;;;23.60;14.93;;;12.00;99.90;;;;;;5039580;28;20178;-70
2022/03/30 05:46:46;;;;;;;32.65;17.05;;;11.90;99.90;;;;;;5046363;28;20052;-70
2022/03/30 05:49:12;;;;;;;21.25;15.45;;;12.00;99.90;;;;;;5039811;28;20095;-68
2022/03/30 05:51:37;;;;;;;26.58;15.70;;;12.00;99.90;;;;;;5042820;28;20040;-70
2022/03/30 05:54:04;;;;;;;16.70;13.13;;;12.10;99.90;;;;;;5045806;28;20656;-69
2022/03/30 05:59:15;;;;;;;24.40;16.08;;;12.20;99.90;;;;;;5050255;28;20091;-71
2022/03/30 06:01:41;;;;;;;32.55;16.45;;;12.30;99.90;;;;;;5048521;28;20096;-70
2022/03/30 06:04:07;;;;;;;26.52;16.15;;;12.40;99.90;;;;;;5050038;28;20447;-70
2022/03/30 06:06:34;;;;;;;32.97;17.92;;;12.40;99.90;;;;;;5047043;28;20052;-70
2022/03/30 06:09:02;;;;;;;26.00;17.40;;;12.50;99.90;;;;;;5048703;28;20080;-70
2022/03/30 06:11:28;;;;;;;27.80;18.98;;;12.60;99.90;;;;;;5050487;28;20075;-70
2022/03/30 06:13:56;;;;;;;34.22;19.02;;;12.70;99.90;;;;;;5049220;28;20029;-71
2022/03/30 06:16:22;;;;;;;30.52;16.95;;;12.80;99.90;;;;;;5042636;28;20041;-69
2022/03/30 06:18:47;;;;;;;22.13;16.63;;;12.80;99.90;;;;;;5049719;28;20051;-69
2022/03/30 06:21:14;;;;;;;25.50;17.88;;;12.80;99.90;;;;;;5031534;28;20537;-69
2022/03/30 06:23:40;;;;;;;27.55;16.77;;;12.90;99.90;;;;;;5059875;28;20025;-69
2022/03/30 06:26:07;;;;;;;33.35;14.68;;;12.90;99.90;;;;;;5039285;28;20391;-70
2022/03/30 06:28:33;;;;;;;23.83;14.65;;;13.00;99.90;;;;;;5033863;28;20109;-70
2022/03/30 06:30:58;;;;;;;23.70;16.23;;;13.00;99.90;;;;;;5028618;28;20071;-70
2022/03/30 06:33:24;;;;;;;24.88;14.23;;;13.10;99.90;;;;;;5030084;28;20029;-69
2022/03/30 06:35:51;;;;;;;28.05;13.68;;;13.20;99.90;;;;;;5049765;28;20071;-70
2022/03/30 06:38:17;;;;;;;21.60;14.43;;;13.20;99.90;;;;;;5048440;28;20252;-69
2022/03/30 06:40:46;;;;;;;27.25;14.82;;;13.30;99.90;;;;;;5043539;28;20150;-70
2022/03/30 06:43:12;;;;;;;35.45;12.90;;;13.30;99.90;;;;;;5047889;28;20013;-70
2022/03/30 06:45:38;;;;;;;23.00;13.85;;;13.30;99.90;;;;;;5042849;28;20080;-70
2022/03/30 06:48:05;;;;;;;29.45;13.73;;;13.40;99.90;;;;;;5045066;28;20013;-69
2022/03/30 06:50:35;;;;;;;29.02;13.23;;;13.50;99.90;;;;;;5029637;28;20018;-71
2022/03/30 06:53:01;;;;;;;22.65;13.20;;;13.50;99.90;;;;;;5030418;28;20534;-70
2022/03/30 06:55:27;;;;;;;34.47;14.52;;;13.60;99.90;;;;;;5043647;28;20294;-70
2022/03/30 06:57:52;;;;;;;21.15;12.35;;;13.60;99.90;;;;;;5048804;28;20024;-70
2022/03/30 07:00:18;;;;;;;18.45;12.30;;;13.60;99.90;;;;;;5040074;28;20104;-70
2022/03/30 07:02:44;;;;;;;24.10;13.25;;;13.70;99.90;;;;;;5033852;28;20053;-69
2022/03/30 07:05:11;;;;;;;24.23;12.88;;;13.70;99.90;;;;;;5030753;28;20091;-69
2022/03/30 07:10:23;;;;;;;21.25;11.75;;;13.80;99.90;;;;;;5049055;28;20510;-69
2022/03/30 07:12:50;;;;;;;20.33;10.63;;;13.70;99.90;;;;;;5052488;28;20032;-70
2022/03/30 07:15:20;;;;;;;20.52;11.73;;;13.80;99.90;;;;;;5051919;28;20123;-70
2022/03/30 07:17:53;;;;;;;32.20;12.45;;;13.90;99.90;;;;;;5052273;28;20051;-65
2022/03/30 07:20:21;;;;;;;33.25;13.02;;;13.80;99.90;;;;;;5052745;28;20064;-65
2022/03/30 07:22:48;;;;;;;29.00;12.52;;;13.70;99.90;;;;;;5052514;28;20025;-65
2022/03/30 07:25:15;;;;;;;25.52;13.27;;;13.70;99.90;;;;;;5050493;28;20056;-66
2022/03/30 07:27:43;;;;;;;30.08;13.02;;;13.70;99.90;;;;;;5052811;28;20029;-66
2022/03/30 07:30:10;;;;;;;23.30;10.77;;;13.80;99.90;;;;;;5053259;28;20025;-65
2022/03/30 07:32:40;;;;;;;24.17;12.75;;;13.90;99.90;;;;;;5051892;28;20120;-63
2022/03/30 07:35:12;;;;;;;22.40;11.00;;;13.90;99.90;;;;;;5052446;28;20224;-64
2022/03/30 07:37:40;;;;;;;24.15;12.10;;;13.90;99.90;;;;;;5052806;28;20025;-67
2022/03/30 07:40:08;;;;;;;35.75;12.48;;;13.80;99.90;;;;;;5040937;28;20028;-66
2022/03/30 07:42:34;;;;;;;23.23;11.40;;;13.80;99.90;;;;;;5035378;28;20021;-65
2022/03/30 07:44:59;;;;;;;21.25;10.80;;;13.80;99.90;;;;;;5043970;28;20490;-65
2022/03/30 07:47:25;;;;;;;23.73;11.20;;;13.80;99.90;;;;;;5053160;28;20138;-65
2022/03/30 07:49:51;;;;;;;22.77;11.40;;;13.80;99.90;;;;;;5049282;28;20035;-66
2022/03/30 07:52:18;;;;;;;24.92;12.43;;;13.80;99.90;;;;;;5045549;28;20029;-65
2022/03/30 07:54:44;;;;;;;24.42;13.20;;;13.80;99.90;;;;;;5051979;28;20039;-64
2022/03/30 07:57:10;;;;;;;22.25;11.60;;;13.90;99.90;;;;;;5050869;28;20025;-64
2022/03/30 07:59:35;;;;;;;26.15;12.18;;;13.80;99.90;;;;;;5051662;28;20020;-64
2022/03/30 08:02:02;;;;;;;20.88;11.57;;;14.00;99.90;;;;;;5053302;28;20344;-64
2022/03/30 08:04:27;;;;;;;25.58;12.55;;;14.20;99.90;;;;;;5052575;28;20079;-64
2022/03/30 08:06:53;;;;;;;21.52;12.10;;;14.30;99.90;;;;;;5046306;28;20025;-64
2022/03/30 08:09:19;;;;;;;28.60;12.55;;;14.40;99.90;;;;;;5050302;28;20060;-64
2022/03/30 08:11:45;;;;;;;34.20;12.77;;;14.40;99.90;;;;;;5046660;28;20033;-65
2022/03/30 08:14:12;;;;;;;22.00;12.02;;;14.20;99.90;;;;;;5045863;28;20043;-64
2022/03/30 08:16:39;;;;;;;31.55;12.20;;;14.10;99.90;;;;;;5046488;28;20402;-65
2022/03/30 08:19:06;;;;;;;20.42;11.15;;;14.20;99.90;;;;;;5044909;28;20472;-65
2022/03/30 08:24:17;;;;;;;27.77;11.70;;;14.20;99.90;;;;;;5048541;28;20036;-65
2022/03/30 08:26:43;;;;;;;28.42;12.60;;;14.10;99.90;;;;;;5051421;28;20071;-63
2022/03/30 08:29:10;;;;;;;18.75;12.38;;;14.10;99.90;;;;;;5042862;28;20397;-64
2022/03/30 08:31:36;;;;;;;29.08;12.43;;;14.20;99.90;;;;;;5048938;28;20074;-63
2022/03/30 08:34:01;;;;;;;25.80;11.15;;;14.30;99.90;;;;;;5045282;28;20033;-64
2022/03/30 08:36:31;;;;;;;18.75;10.20;;;14.40;99.90;;;;;;5049698;28;20026;-64
2022/03/30 08:38:57;;;;;;;32.78;11.43;;;14.40;99.90;;;;;;5048904;28;20025;-65
2022/03/30 08:41:23;;;;;;;19.35;11.18;;;14.50;99.90;;;;;;5045341;28;20460;-65
2022/03/30 08:43:49;;;;;;;19.65;8.95;;;14.50;99.90;;;;;;5044882;28;20116;-65
2022/03/30 08:46:15;;;;;;;12.77;9.70;;;14.60;99.90;;;;;;5051869;28;20116;-64
2022/03/30 08:48:42;;;;;;;26.90;11.45;;;14.50;99.90;;;;;;5051748;28;20029;-65
2022/03/30 08:51:10;;;;;;;23.98;11.45;;;14.50;99.90;;;;;;5042006;28;20021;-67
2022/03/30 08:53:37;;;;;;;36.88;10.82;;;14.60;99.90;;;;;;5038269;28;20064;-65
2022/03/30 08:56:03;;;;;;;29.27;11.05;;;14.70;99.90;;;;;;5054035;28;20069;-64
2022/03/30 08:58:29;;;;;;;27.90;12.52;;;14.80;99.90;;;;;;5049337;28;20017;-63
2022/03/30 09:01:09;;;;;;;23.48;11.35;;;14.60;99.90;;;;;;5050667;28;20429;-65
2022/03/30 09:03:36;;;;;;;38.53;11.55;;;14.50;99.90;;;;;;5049526;28;20103;-65
2022/03/30 09:06:02;;;;;;;26.17;12.20;;;14.50;99.90;;;;;;5050640;28;20025;-64
2022/03/30 09:08:28;;;;;;;23.92;10.65;;;14.60;99.90;;;;;;5048231;28;20021;-64
2022/03/30 09:10:56;;;;;;;32.28;10.75;;;14.80;99.90;;;;;;5047668;28;20021;-63
2022/03/30 09:13:22;;;;;;;22.52;10.77;;;14.80;99.90;;;;;;5049693;28;20021;-64
2022/03/30 09:15:49;;;;;;;21.73;9.88;;;14.80;99.90;;;;;;5049873;28;20090;-64
2022/03/30 09:18:16;;;;;;;24.17;11.57;;;14.80;99.90;;;;;;5044353;28;20036;-65
2022/03/30 09:20:55;;;;;;;28.08;10.48;;;14.90;99.90;;;;;;5037109;28;20036;-65
2022/03/30 09:23:24;;;;;;;20.17;10.57;;;15.00;99.90;;;;;;5030958;28;20020;-65
2022/03/30 09:25:50;;;;;;;18.08;10.27;;;15.20;99.90;;;;;;5031354;28;20056;-66
2022/03/30 09:28:18;;;;;;;19.40;10.80;;;15.30;99.90;;;;;;5044833;28;20071;-64
2022/03/30 09:30:45;;;;;;;20.02;9.80;;;15.40;99.90;;;;;;5047054;28;20016;-64
2022/03/30 09:33:11;;;;;;;15.73;10.18;;;15.40;99.90;;;;;;5044179;28;20471;-64
2022/03/30 09:35:38;;;;;;;20.42;9.30;;;15.40;99.90;;;;;;5048161;28;20043;-64
2022/03/30 09:38:13;;;;;;;17.88;8.68;;;15.30;99.90;;;;;;5050549;28;20024;-64
2022/03/30 09:40:49;;;;;;;22.02;10.85;;;15.20;99.90;;;;;;5050709;28;20022;-64
2022/03/30 09:43:34;;;;;;;23.65;9.55;;;15.20;99.90;;;;;;5048821;28;20112;-64
2022/03/30 09:46:05;;;;;;;22.50;9.25;;;15.30;99.90;;;;;;5047117;28;20119;-64
2022/03/30 09:48:35;;;;;;;17.87;10.13;;;15.40;99.90;;;;;;5049955;28;20021;-65
2022/03/30 09:51:06;;;;;;;22.25;9.25;;;15.30;99.90;;;;;;5050109;28;20048;-64
2022/03/30 09:53:33;;;;;;;21.63;9.88;;;15.40;99.90;;;;;;5049109;28;20060;-65
2022/03/30 09:56:01;;;;;;;14.43;9.13;;;15.50;99.90;;;;;;5047183;28;20124;-65
2022/03/30 09:58:29;;;;;;;17.50;9.48;;;15.70;99.90;;;;;;5042527;28;20017;-66
2022/03/30 10:01:09;;;;;;;21.88;9.45;;;15.80;99.90;;;;;;5043987;28;20025;-65
2022/03/30 10:03:42;;;;;;;25.38;10.35;;;16.00;99.90;;;;;;5038088;28;20025;-65
2022/03/30 10:06:09;;;;;;;19.08;10.02;;;16.10;99.90;;;;;;5050498;28;20428;-65
2022/03/30 10:08:35;;;;;;;22.92;9.68;;;16.20;99.90;;;;;;5049417;28;20040;-66
2022/03/30 10:11:01;;;;;;;33.00;9.23;;;16.30;99.90;;;;;;5045896;28;20431;-65
2022/03/30 10:13:28;;;;;;;24.13;12.18;;;16.30;99.90;;;;;;5042763;28;20447;-67
2022/03/30 10:15:53;;;;;;;24.92;10.10;;;16.50;99.90;;;;;;5049927;28;20049;-65
2022/03/30 10:18:20;;;;;;;19.95;9.63;;;16.40;99.90;;;;;;5051137;28;20049;-65
2022/03/30 10:21:02;;;;;;;19.85;9.88;;;16.40;99.90;;;;;;5049192;28;20029;-65
2022/03/30 10:23:49;;;;;;;20.73;9.98;;;16.30;99.90;;;;;;5051184;28;20070;-65
2022/03/30 10:26:32;;;;;;;29.70;13.00;;;16.20;99.90;;;;;;5042167;28;20029;-65
2022/03/30 10:29:04;;;;;;;26.23;9.93;;;16.10;99.90;;;;;;5046328;28;20397;-66
2022/03/30 10:31:30;;;;;;;19.25;8.98;;;16.10;99.90;;;;;;5049628;28;20497;-66
2022/03/30 10:33:56;;;;;;;31.85;10.13;;;16.10;99.90;;;;;;5046550;28;20119;-66
2022/03/30 10:36:34;;;;;;;23.17;9.07;;;16.00;99.90;;;;;;5049813;28;20084;-66
2022/03/30 10:39:24;;;;;;;17.48;9.80;;;15.80;99.90;;;;;;5041570;28;20022;-65
2022/03/30 10:42:11;;;;;;;16.38;8.77;;;15.80;99.90;;;;;;5042369;28;20120;-65
2022/03/30 10:44:51;;;;;;;23.42;9.63;;;15.90;99.90;;;;;;5061754;28;20022;-65
2022/03/30 10:47:21;;;;;;;26.58;10.27;;;15.90;99.90;;;;;;5035271;28;20061;-65
2022/03/30 10:49:54;;;;;;;25.35;11.02;;;15.90;99.90;;;;;;5034327;28;20021;-65
2022/03/30 10:52:37;;;;;;;16.88;9.32;;;15.80;99.90;;;;;;5042394;28;20108;-66
2022/03/30 10:55:12;;;;;;;20.20;10.55;;;15.70;99.90;;;;;;5051599;28;20094;-65
2022/03/30 10:57:49;;;;;;;19.58;10.80;;;15.60;99.90;;;;;;5052001;28;20027;-65
2022/03/30 11:00:20;;;;;;;22.52;11.25;;;15.60;99.90;;;;;;5053503;28;20071;-65
2022/03/30 11:02:46;;;;;;;27.45;10.95;;;15.70;99.90;;;;;;5052873;28;20956;-65
2022/03/30 11:05:17;;;;;;;25.95;11.05;;;15.70;99.90;;;;;;5049490;28;20559;-65
2022/03/30 11:07:43;;;;;;;27.02;9.88;;;15.90;99.90;;;;;;5050803;28;20037;-66
2022/03/30 11:10:21;;;;;;;21.10;9.82;;;15.90;99.90;;;;;;5047441;28;20438;-66
2022/03/30 11:13:11;;;;;;;18.85;9.73;;;16.00;99.90;;;;;;5051736;28;20430;-66
2022/03/30 11:16:04;;;;;;;19.65;11.25;;;16.10;99.90;;;;;;5041579;28;20491;-65
2022/03/30 11:18:31;;;;;;;37.45;11.40;;;16.20;99.90;;;;;;5046165;28;20029;-66
2022/03/30 11:21:11;;;;;;;22.33;9.00;;;16.30;99.90;;;;;;5049388;28;20039;-64
2022/03/30 11:23:52;;;;;;;17.35;9.05;;;16.40;99.90;;;;;;5047974;28;20021;-66
2022/03/30 11:26:18;;;;;;;32.78;9.82;;;16.40;99.90;;;;;;5033625;28;20037;-66
2022/03/30 11:28:43;;;;;;;25.83;10.38;;;16.60;99.90;;;;;;5042547;28;20030;-66
2022/03/30 11:31:21;;;;;;;30.83;11.57;;;16.70;99.90;;;;;;5035292;28;20018;-65
2022/03/30 11:34:27;;;;;;;20.17;9.02;;;17.00;99.90;;;;;;5043090;28;20021;-67
2022/03/30 11:36:54;;;;;;;32.22;9.90;;;17.10;99.90;;;;;;5045075;28;20033;-65
2022/03/30 11:39:30;;;;;;;24.48;10.48;;;17.20;99.90;;;;;;5042153;28;20082;-65
2022/03/30 11:41:58;;;;;;;31.13;10.75;;;17.20;99.90;;;;;;5052178;28;20442;-65
2022/03/30 11:47:16;;;;;;;31.13;10.02;;;17.00;99.90;;;;;;5040081;28;20048;-66
2022/03/30 11:49:52;;;;;;;29.52;10.02;;;16.90;99.90;;;;;;5040820;28;20036;-66
2022/03/30 11:52:19;;;;;;;37.40;10.85;;;16.80;99.90;;;;;;5044704;28;20048;-66
2022/03/30 11:54:53;;;;;;;18.08;9.95;;;16.70;99.90;;;;;;5044714;28;20498;-67
2022/03/30 11:57:21;;;;;;;33.20;10.57;;;16.60;99.90;;;;;;5049328;28;20391;-66
2022/03/30 12:00:00;;;;;;;20.38;10.05;;;16.60;99.90;;;;;;5047196;28;20048;-66
2022/03/30 12:02:27;;;;;;;23.45;10.07;;;16.60;99.90;;;;;;5050328;28;20025;-66
2022/03/30 12:04:54;;;;;;;27.05;9.15;;;16.70;99.90;;;;;;5045619;28;20025;-66
2022/03/30 12:07:20;;;;;;;23.48;9.65;;;16.70;99.90;;;;;;5048861;28;20028;-66
2022/03/30 12:09:53;;;;;;;25.88;10.20;;;16.70;99.90;;;;;;5040821;28;20384;-65
2022/03/30 12:12:25;;;;;;;16.35;8.27;;;16.60;99.90;;;;;;5044714;28;20465;-66
2022/03/30 12:15:01;;;;;;;;;;;16.40;99.90;;;;;;5048309;28;20040;-66
2022/03/30 12:17:27;;;;;;;25.85;10.27;;;16.30;99.90;;;;;;5047971;28;19913;-65
2022/03/30 12:19:54;;;;;;;16.23;8.85;;;16.20;99.90;;;;;;5045805;28;20124;-66
2022/03/30 12:22:20;;;;;;;25.77;9.48;;;16.20;99.90;;;;;;5050831;28;20018;-65
2022/03/30 12:24:46;;;;;;;23.05;10.82;;;16.10;99.90;;;;;;5052407;28;20056;-65
2022/03/30 12:27:13;;;;;;;16.35;9.90;;;15.80;99.90;;;;;;5052473;28;20068;-67
2022/03/30 12:29:39;;;;;;;18.55;8.32;;;15.50;99.90;;;;;;5052464;28;20025;-67
2022/03/30 12:32:06;;;;;;;23.98;8.75;;;15.40;99.90;;;;;;5050877;28;20029;-66
2022/03/30 12:34:35;;;;;;;15.52;9.18;;;15.30;99.90;;;;;;5043164;28;20036;-65
2022/03/30 12:37:06;;;;;;;20.15;9.35;;;15.10;99.90;;;;;;5044716;28;20029;-66
2022/03/30 12:39:39;;;;;;;18.60;8.10;;;14.80;99.90;;;;;;5046407;28;20017;-66
2022/03/30 12:42:12;;;;;;;26.13;9.73;;;14.70;99.90;;;;;;5045220;28;20096;-67
2022/03/30 12:44:47;;;;;;;17.42;9.32;;;14.60;99.90;;;;;;5049783;28;20078;-67
2022/03/30 12:47:29;;;;;;;22.20;9.40;;;14.50;99.90;;;;;;5043896;28;20033;-67
2022/03/30 12:49:57;;;;;;;19.42;9.10;;;14.30;99.90;;;;;;5032544;28;20498;-66